LXGB

Details ICAO LXGB (GIB)
Name Gibraltar Int'l
Region Gibralter
Timezone Europe/Gibraltar (UTC+2.0)
Plans Departing 986
Arriving 1237
Stats Elevation 15 ft / 5 m (AMSL)
Location 36.151200° -5.349740°
Runways 1
Magnetic Variation 1.027° W
Sunrise 2018-10-16 06:30:04 UTC / 2018-10-16 08:30:04 Local
Sunset 2018-10-16 17:46:10 UTC / 2018-10-16 19:46:10 Local
Advertisement - Login to hide

Runways

ID Width Length Bearing (true/mag) Surface Threshold Overrun Markings Lighting
09 148 ft / 45 m 5,836 ft / 1,779 m 87.54° / 88.57° ASPHALT 456 ft / 139 m 56 ft / 17 m UK-PREC-APP EDGE THRESHOLD REIL-UNI
27 148 ft / 45 m 5,836 ft / 1,779 m 267.56° / 268.58° ASPHALT 328 ft / 100 m 141 ft / 43 m UK-PREC-APP EDGE THRESHOLD REIL-UNI

Map

Weather


0- 5 10 15 20 25 30 35+ Temperature / °C

Clouds and Precipitation
Forecast for 2018-10-16 12:00 UTC. Updated 5 hours ago

Ground ~20,000 ft ~40,000 ft Winds

METAR

LXGB 161350Z 25010KT 9999 FEW040 24/14 Q1013 BLU NOSIG

TAF

Not found

Frequencies

Tower 131.20 MHz
Approach 130.40 MHz RDR
Approach 122.80 MHz
Warning: Do not use this data for real-world aviation or navigation. No guarantee of current accuracy is given.